NCAR-RAP Real-Time Weather Data

Output produced by METARs form (08 May 2021  16:51 UTC)
found at http://weather.rap.ucar.edu/surface/
 
KLOU 081553Z 36006KT 10SM CLR 14/00 A3015 RMK AO2 SLP208 T01390000
KLOU 081453Z VRB03KT 10SM CLR 13/01 A3015 RMK AO2 SLP210 T01280011 51012
KLOU 081353Z 36008KT 10SM FEW090 11/00 A3015 RMK AO2 SLP208 T01110000
KLOU 081253Z 36006KT 10SM CLR 09/00 A3014 RMK AO2 SLP205 T00940000
KLOU 081153Z 01006KT 10SM FEW080 08/01 A3012 RMK AO2 SLP198 70003 T00830011 10111 20056 53015
KLOU 081053Z 36003KT 10SM FEW085 07/01 A3009 RMK AO2 SLP190 T00670011
KLOU 080953Z AUTO 01004KT 10SM BKN090 08/01 A3008 RMK AO2 SLP185 T00780006
KLOU 080853Z AUTO 35003KT 10SM SCT095 08/01 A3007 RMK AO2 SLP182 T00830011 53010
KLOU 080753Z AUTO 35004KT 10SM BKN095 BKN110 09/02 A3006 RMK AO2 SLP177 T00940017
KLOU 080653Z AUTO 35003KT 10SM FEW090 BKN110 10/03 A3005 RMK AO2 SLP174 T01000028
KLOU 080553Z AUTO 02005KT 10SM SCT090 BKN110 11/06 A3004 RMK AO2 SLP172 60003 T01110056 10144 20111 51024
KLOU 080453Z AUTO 36010G17KT 10SM BKN090 BKN110 12/07 A3002 RMK AO2 SLP165 T01220072 402000061
KLOU 080353Z AUTO 30004KT 10SM OVC085 13/08 A3000 RMK AO2 SLP156 T01330083
KLOU 080253Z AUTO 25006KT 10SM OVC080 13/08 A2997 RMK AO2 SLP148 60003 T01280083 53002
KLOU 080153Z AUTO 20008KT 10SM SCT090 12/08 A2996 RMK AO2 RAE13 SLP143 P0001 T01220078
KLOU 080053Z 30004KT 7SM -RA FEW042 BKN065 OVC090 12/08 A2997 RMK AO2 RAB22 SLP150 P0002 T01220078
KLOU 072353Z 23009KT 10SM BKN100 OVC120 14/06 A2996 RMK AO2 PK WND 24032/2256 RAB06E29 SLP146 P0000 60000 T01440056 10200 20144 58006
KLOU 072253Z 26019G38KT 10SM FEW070 OVC095 17/03 A2999 RMK AO2 PK WND 28038/2251 RAB2156E35 SLP156 P0000 T01670028
KLOU 072153Z 28014G25KT 10SM BKN070 BKN090 OVC110 18/01 A2997 RMK AO2 SLP149 T01830011
KLOU 072053Z 26011G25KT 10SM BKN090 OVC110 19/01 A2998 RMK AO2 SLP152 T01890011 56025
KLOU 071953Z 25015G19KT 10SM BKN085 BKN100 18/02 A3000 RMK AO2 SLP156 T01830017
KLOU 071853Z 28008KT 10SM BKN090 BKN110 19/02 A3003 RMK AO2 SLP167 T01940017
KLOU 071753Z 24007KT 10SM FEW065 18/03 A3006 RMK AO2 SLP177 T01780033 10183 20083 58011
KLOU 071653Z 25007G18KT 10SM CLR 17/03 A3008 RMK AO2 SLP184 T01720033
KLOU 071553Z 25009G14KT 10SM CLR 16/03 A3008 RMK AO2 SLP186 T01560033
KLOU 071453Z 10SM CLR 14/03 A3009 RMK AO2 SLP189 T01390033 50002
KLOU 071353Z VRB03KT 10SM CLR 12/03 A3010 RMK AO2 SLP191 T01170033
KLOU 071253Z 23003KT 10SM CLR 10/05 A3009 RMK AO2 SLP190 T01000050
KLOU 071153Z 00000KT 7SM FEW070 08/05 A3009 RMK AO2 SLP187 T00830050 10117 20061 53015
KLOU 071053Z 00000KT 6SM HZ CLR 07/04 A3006 RMK AO2 SLP179 T00670039
KLOU 070953Z AUTO 00000KT 9SM CLR 07/04 A3004 RMK AO2 SLP172 T00720039
KLOU 070853Z AUTO 31003KT 10SM CLR 08/04 A3004 RMK AO2 SLP172 T00780039 53002
KLOU 070753Z AUTO VRB06KT 10SM FEW019 09/04 A3003 RMK AO2 SLP167 T00940044
KLOU 070744Z AUTO 34004KT 10SM SCT019 09/04 A3003 RMK AO2 T00940044
KLOU 070653Z AUTO 33008KT 10SM FEW020 OVC028 11/06 A3002 RMK AO2 SLP165 T01110061
KLOU 070553Z AUTO VRB06KT 10SM OVC019 12/07 A3003 RMK AO2 SLP168 60000 T01170067 10139 20117 55001
KLOU 070453Z AUTO 30008KT 10SM BKN017 12/08 A3003 RMK AO2 SLP168 T01170078 401940044
KLOU 070414Z AUTO 29008KT 10SM BKN016 BKN036 OVC075 12/08 A3003 RMK AO2 T01220083
KLOU 070353Z AUTO 26006KT 10SM FEW016 BKN034 BKN065 12/08 A3003 RMK AO2 SLP168 T01220083
KLOU 070253Z AUTO 29004KT 10SM BKN047 OVC060 13/08 A3004 RMK AO2 SLP170 60000 T01280078 53013
KLOU 070153Z 23006KT 10SM SCT055 BKN070 13/08 A3002 RMK AO2 SLP166 T01280078
KLOU 070053Z 27005KT 10SM OVC070 13/08 A3001 RMK AO2 RAE43 SLP161 P0000 T01330078
KLOU 062353Z 26010G19KT 10SM -RA BKN060 OVC080 14/07 A3000 RMK AO2 RAB39 SLP159 P0000 60000 T01440067 10194 20144 55002
KLOU 062253Z 24008KT 10SM OVC085 17/04 A2998 RMK AO2 SLP153 T01720039
KLOU 062153Z 24007KT 10SM BKN090 BKN110 18/03 A2999 RMK AO2 SLP154 T01830033
KLOU 062053Z 24006KT 10SM SCT080 OVC110 18/04 A3001 RMK AO2 SLP160 T01830039 56028
KLOU 061953Z AUTO 22007G17KT 10SM FEW110 19/03 A3003 RMK AO2 SLP167 T01890028
KLOU 061853Z 10SM SCT120 19/03 A3005 RMK AO2 SLP175 T01890033
KLOU 061753Z 23005KT 10SM CLR 17/03 A3009 RMK AO2 SLP189 T01720033 10183 20078 58023
KLOU 061653Z 21005KT 10SM CLR 17/03 A3012 RMK AO2 SLP200 T01720033